Time;durP1;ratioP1;P1;durP2;ratioP2;P2;SDS_P1;SDS_P2;PMS_P1;PMS_P2;Temp;Humidity;BMP_temperature;BMP_pressure;BME280_temperature;BME280_humidity;BME280_pressure;Samples;Min_cycle;Max_cycle;Signal;HPM_P1;HPM_P2
2022/04/12 00:02:34;;;;;;;7.53;4.50;;;-2.50;99.90;;;;;;8281508;28;20227;-62
2022/04/12 00:06:36;;;;;;;6.10;4.50;;;-2.50;99.90;;;;;;8282337;28;20242;-65
2022/04/12 00:10:37;;;;;;;7.30;4.87;;;-2.60;99.90;;;;;;8300032;28;20230;-63
2022/04/12 00:14:38;;;;;;;8.10;4.80;;;-2.60;99.90;;;;;;8286661;28;20313;-63
2022/04/12 00:22:59;;;;;;;7.93;4.80;;;-2.70;99.90;;;;;;8284993;28;20218;-64
2022/04/12 00:26:59;;;;;;;6.50;4.53;;;-2.70;99.90;;;;;;8297596;28;20206;-64
2022/04/12 00:31:00;;;;;;;7.70;4.20;;;-2.80;99.90;;;;;;8282106;28;20260;-64
2022/04/12 00:35:03;;;;;;;6.47;4.43;;;-2.80;99.90;;;;;;8281387;28;20219;-65
2022/04/12 00:39:04;;;;;;;8.53;4.57;;;-2.80;99.90;;;;;;8280522;28;20222;-64
2022/04/12 00:43:05;;;;;;;7.50;4.70;;;-2.90;99.90;;;;;;8296976;28;20203;-65
2022/04/12 00:47:06;;;;;;;7.13;4.20;;;-2.90;99.90;;;;;;8279048;28;20241;-63
2022/04/12 00:51:07;;;;;;;7.00;3.93;;;-2.90;99.90;;;;;;8278690;28;20449;-63
2022/04/12 00:55:08;;;;;;;7.40;4.07;;;-3.00;99.90;;;;;;8281481;28;20214;-65
2022/04/12 00:59:11;;;;;;;7.17;4.73;;;-3.10;99.90;;;;;;8276898;28;20296;-65
2022/04/12 01:03:11;;;;;;;8.63;5.00;;;-3.10;99.90;;;;;;8286032;28;20222;-63
2022/04/12 01:07:12;;;;;;;8.07;4.63;;;-3.20;99.90;;;;;;8280821;28;20214;-64
2022/04/12 01:11:13;;;;;;;7.77;5.10;;;-3.20;99.90;;;;;;8282275;28;20211;-63
2022/04/12 01:15:17;;;;;;;12.13;5.03;;;-3.20;99.90;;;;;;8279245;28;20214;-62
2022/04/12 01:19:18;;;;;;;9.87;5.87;;;-3.20;99.90;;;;;;8275922;28;20210;-63
2022/04/12 01:23:27;;;;;;;9.93;5.80;;;-3.20;99.90;;;;;;8284882;28;20218;-64
2022/04/12 01:27:27;;;;;;;10.83;6.60;;;-3.20;99.90;;;;;;8280474;28;20651;-64
2022/04/12 01:31:28;;;;;;;12.43;6.03;;;-3.30;99.90;;;;;;8283515;28;20217;-65
2022/04/12 01:35:29;;;;;;;10.13;5.30;;;-3.30;99.90;;;;;;8295652;28;20217;-64
2022/04/12 01:39:30;;;;;;;11.30;6.33;;;-3.30;99.90;;;;;;8281422;28;20302;-64
2022/04/12 01:43:31;;;;;;;12.23;6.20;;;-3.30;99.90;;;;;;8280401;28;20268;-63
2022/04/12 01:47:33;;;;;;;10.37;5.60;;;-3.30;99.90;;;;;;8282298;28;20207;-64
2022/04/12 01:51:34;;;;;;;10.87;5.57;;;-3.30;99.90;;;;;;8284790;28;20214;-63
2022/04/12 01:55:34;;;;;;;13.17;6.87;;;-3.30;99.90;;;;;;8282294;28;20257;-65
2022/04/12 01:59:35;;;;;;;11.03;5.50;;;-3.40;99.90;;;;;;8292956;28;20210;-63
2022/04/12 02:03:36;;;;;;;11.90;6.07;;;-3.50;99.90;;;;;;8300817;28;20195;-65
2022/04/12 02:07:37;;;;;;;9.07;6.00;;;-3.50;99.90;;;;;;8284789;28;20202;-64
2022/04/12 02:11:38;;;;;;;10.80;6.20;;;-3.50;99.90;;;;;;8292174;28;20210;-63
2022/04/12 02:15:39;;;;;;;12.90;7.93;;;-3.50;99.90;;;;;;8296922;28;20214;-65
2022/04/12 02:19:39;;;;;;;15.00;7.23;;;-3.50;99.90;;;;;;8308812;28;20326;-63
2022/04/12 02:23:40;;;;;;;12.33;6.23;;;-3.50;99.90;;;;;;8287875;28;20199;-63
2022/04/12 02:27:41;;;;;;;13.53;5.70;;;-3.60;99.90;;;;;;8283370;28;20284;-63
2022/04/12 02:31:42;;;;;;;8.17;4.80;;;-3.60;99.90;;;;;;8300047;28;20301;-64
2022/04/12 02:35:43;;;;;;;9.30;5.20;;;-3.60;99.90;;;;;;8287870;28;20203;-63
2022/04/12 02:39:44;;;;;;;10.60;5.47;;;-3.60;99.90;;;;;;8283005;28;20306;-63
2022/04/12 02:43:45;;;;;;;11.93;5.60;;;-3.70;99.90;;;;;;8281657;28;20210;-65
2022/04/12 02:47:45;;;;;;;7.37;4.77;;;-3.70;99.90;;;;;;8299487;28;20203;-71
2022/04/12 02:51:46;;;;;;;9.23;5.33;;;-3.80;99.90;;;;;;8286306;28;20221;-63
2022/04/12 02:55:47;;;;;;;10.23;6.10;;;-3.80;99.90;;;;;;8287023;28;20227;-65
2022/04/12 02:59:48;;;;;;;6.97;5.07;;;-3.80;99.90;;;;;;8299515;28;20264;-63
2022/04/12 03:03:48;;;;;;;9.17;5.27;;;-3.80;99.90;;;;;;8283284;28;20234;-63
2022/04/12 03:07:49;;;;;;;8.87;5.20;;;-3.80;99.90;;;;;;8291529;28;20211;-63
2022/04/12 03:11:50;;;;;;;8.00;5.40;;;-3.80;99.90;;;;;;8281810;28;20222;-64
2022/04/12 03:15:51;;;;;;;8.53;5.40;;;-3.90;99.90;;;;;;8282741;28;20220;-66
2022/04/12 03:19:52;;;;;;;7.83;4.57;;;-3.90;99.90;;;;;;8288271;28;20297;-64
2022/04/12 03:23:53;;;;;;;7.80;5.37;;;-3.90;99.90;;;;;;8286817;28;20206;-66
2022/04/12 03:27:53;;;;;;;6.83;4.20;;;-4.00;99.90;;;;;;8285038;28;20359;-63
2022/04/12 03:31:54;;;;;;;9.30;4.97;;;-4.00;99.90;;;;;;8286872;28;20202;-65
2022/04/12 03:35:55;;;;;;;7.80;4.80;;;-4.00;99.90;;;;;;8282648;28;20308;-63
2022/04/12 03:39:56;;;;;;;13.43;5.53;;;-4.10;99.90;;;;;;8282349;28;20353;-65
2022/04/12 03:43:56;;;;;;;17.27;7.77;;;-4.10;99.90;;;;;;8290552;28;20263;-63
2022/04/12 03:47:58;;;;;;;16.77;7.70;;;-4.10;99.90;;;;;;8278424;28;20210;-64
2022/04/12 03:51:59;;;;;;;11.10;5.53;;;-4.10;99.90;;;;;;8287375;28;20202;-66
2022/04/12 03:56:00;;;;;;;25.17;7.97;;;-4.10;99.90;;;;;;8282232;28;20290;-63
2022/04/12 04:00:00;;;;;;;39.90;11.87;;;-4.10;99.90;;;;;;8283654;28;20213;-63
2022/04/12 04:04:01;;;;;;;29.83;8.87;;;-4.10;99.90;;;;;;8298339;28;20214;-65
2022/04/12 04:08:03;;;;;;;20.37;7.30;;;-4.10;99.90;;;;;;8296441;28;20240;-63
2022/04/12 04:12:04;;;;;;;14.67;6.67;;;-4.10;99.90;;;;;;8279391;28;20220;-65
2022/04/12 04:16:08;;;;;;;16.40;6.60;;;-4.10;99.90;;;;;;8280354;28;20226;-65
2022/04/12 04:20:11;;;;;;;33.93;12.20;;;-4.00;99.90;;;;;;8284280;28;20211;-62
2022/04/12 04:24:12;;;;;;;15.57;8.77;;;-4.00;99.90;;;;;;8287310;28;20202;-63
2022/04/12 04:28:13;;;;;;;24.70;10.80;;;-3.90;99.90;;;;;;8286549;28;20557;-64
2022/04/12 04:32:14;;;;;;;46.50;15.17;;;-3.70;99.90;;;;;;8281320;28;20207;-63
2022/04/12 04:36:15;;;;;;;34.00;12.90;;;-3.30;99.90;;;;;;8283233;28;20511;-64
2022/04/12 04:40:17;;;;;;;23.03;10.13;;;-2.80;99.90;;;;;;8281990;28;20214;-65
2022/04/12 04:44:18;;;;;;;11.97;7.70;;;-2.40;99.90;;;;;;8281474;28;20233;-63
2022/04/12 04:48:19;;;;;;;14.27;8.17;;;-2.10;99.90;;;;;;8282888;28;20215;-64
2022/04/12 04:52:23;;;;;;;16.50;8.83;;;-1.80;99.90;;;;;;8281406;28;20214;-66
2022/04/12 04:56:27;;;;;;;25.10;10.80;;;-1.70;99.90;;;;;;8279601;28;20517;-64
2022/04/12 05:00:32;;;;;;;23.27;11.13;;;-1.70;99.90;;;;;;8281543;28;20226;-64
2022/04/12 05:04:33;;;;;;;28.07;12.10;;;-1.70;99.90;;;;;;8287080;28;20209;-64
2022/04/12 05:08:33;;;;;;;30.67;13.37;;;-1.60;99.90;;;;;;8296804;28;20594;-70
2022/04/12 05:12:34;;;;;;;29.67;12.93;;;-1.60;99.90;;;;;;8279812;28;20206;-66
2022/04/12 05:16:35;;;;;;;23.20;11.70;;;-1.40;99.90;;;;;;8280370;28;20230;-65
2022/04/12 05:20:36;;;;;;;26.60;11.43;;;-1.40;99.90;;;;;;8287110;28;20204;-64
2022/04/12 05:24:37;;;;;;;25.37;13.17;;;-1.30;99.90;;;;;;8277787;28;20208;-65
2022/04/12 05:28:38;;;;;;;25.03;13.33;;;-1.30;99.90;;;;;;8279819;28;20219;-71
2022/04/12 05:32:39;;;;;;;34.10;18.00;;;-1.20;99.90;;;;;;8283255;28;20208;-65
2022/04/12 05:36:39;;;;;;;40.87;19.10;;;-1.00;99.90;;;;;;8279735;28;20209;-62
2022/04/12 05:40:40;;;;;;;43.63;18.20;;;-0.70;99.90;;;;;;8277088;28;20218;-63
2022/04/12 05:44:41;;;;;;;39.27;17.47;;;-0.40;99.90;;;;;;8291912;28;20215;-62
2022/04/12 05:48:42;;;;;;;35.73;20.53;;;-0.10;99.90;;;;;;8279243;28;20257;-64
2022/04/12 05:52:43;;;;;;;35.60;19.10;;;0.10;99.90;;;;;;8285377;28;20213;-62
2022/04/12 05:56:44;;;;;;;35.43;19.00;;;0.40;99.90;;;;;;8277917;28;20232;-64
2022/04/12 06:00:45;;;;;;;40.17;22.27;;;0.60;99.90;;;;;;8286621;28;20210;-61
2022/04/12 06:04:46;;;;;;;50.03;28.37;;;0.90;99.90;;;;;;8278354;28;20275;-61
2022/04/12 06:08:47;;;;;;;48.33;29.70;;;1.30;99.90;;;;;;8281178;28;20237;-61
2022/04/12 06:12:48;;;;;;;42.97;28.13;;;1.60;99.90;;;;;;8294871;28;20307;-69
2022/04/12 06:16:49;;;;;;;54.47;28.20;;;1.90;99.90;;;;;;8280089;28;20517;-61
2022/04/12 06:20:49;;;;;;;60.37;30.17;;;2.20;99.90;;;;;;8278429;28;20234;-62
2022/04/12 06:24:50;;;;;;;63.53;30.10;;;2.60;99.90;;;;;;8279662;28;20229;-63
2022/04/12 06:28:51;;;;;;;53.93;27.47;;;2.90;99.90;;;;;;8279704;28;20207;-61
2022/04/12 06:32:53;;;;;;;42.80;21.03;;;3.20;1.00;;;;;;8282179;28;20299;-62
2022/04/12 06:36:53;;;;;;;43.87;21.93;;;3.50;99.90;;;;;;8285295;28;20679;-62
2022/04/12 06:40:54;;;;;;;24.17;11.97;;;3.80;1.00;;;;;;8283034;28;20277;-62
2022/04/12 06:44:55;;;;;;;16.87;9.43;;;4.20;99.90;;;;;;8285273;28;20263;-63
2022/04/12 06:48:56;;;;;;;14.93;8.90;;;4.70;99.90;;;;;;8284311;28;20256;-63
2022/04/12 06:52:57;;;;;;;17.10;8.90;;;5.10;99.90;;;;;;8284719;28;20207;-61
2022/04/12 06:56:58;;;;;;;16.17;7.87;;;5.50;1.00;;;;;;8284554;28;20285;-74
2022/04/12 07:00:59;;;;;;;17.70;8.53;;;5.80;99.90;;;;;;8280854;28;20573;-62
2022/04/12 07:05:01;;;;;;;12.93;6.80;;;6.10;99.90;;;;;;8286177;28;20289;-61
2022/04/12 07:09:02;;;;;;;12.80;7.30;;;6.40;1.00;;;;;;8284320;28;20257;-62
2022/04/12 07:13:03;;;;;;;17.70;11.87;;;6.60;99.90;;;;;;8294597;28;20226;-62
2022/04/12 07:17:05;;;;;;;12.67;8.50;;;6.90;99.90;;;;;;8287038;28;20223;-63
2022/04/12 07:21:06;;;;;;;11.87;8.10;;;7.30;99.90;;;;;;8281100;28;20203;-63
2022/04/12 07:25:08;;;;;;;12.50;9.90;;;7.60;99.90;;;;;;8288749;28;20211;-62
2022/04/12 07:29:09;;;;;;;12.90;8.63;;;7.80;99.90;;;;;;8293406;28;20212;-63
2022/04/12 07:33:09;;;;;;;14.37;7.90;;;8.20;1.00;;;;;;8285198;28;20265;-63
2022/04/12 07:37:10;;;;;;;66.73;24.57;;;8.40;1.00;;;;;;8293539;28;20671;-62
2022/04/12 07:41:11;;;;;;;57.47;19.57;;;8.50;99.90;;;;;;8281018;28;20210;-65
2022/04/12 07:45:12;;;;;;;249.00;72.70;;;8.70;99.90;;;;;;8282645;28;20215;-63
2022/04/12 07:49:13;;;;;;;72.90;21.80;;;8.90;99.90;;;;;;8279934;28;20318;-64
2022/04/12 07:53:14;;;;;;;50.43;28.27;;;9.00;99.90;;;;;;8282368;28;20211;-64
2022/04/12 07:57:14;;;;;;;16.17;9.60;;;9.20;99.90;;;;;;8282903;28;20229;-62
2022/04/12 08:01:15;;;;;;;21.17;13.20;;;9.40;99.90;;;;;;8286214;28;20211;-61
2022/04/12 08:05:16;;;;;;;24.13;14.83;;;9.70;1.00;;;;;;8282980;28;20294;-62
2022/04/12 08:09:17;;;;;;;48.17;19.13;;;9.90;1.00;;;;;;8285799;28;20341;-62
2022/04/12 08:13:18;;;;;;;64.03;24.27;;;10.10;1.00;;;;;;8292001;28;20212;-62
2022/04/12 08:17:18;;;;;;;21.70;11.10;;;10.30;1.00;;;;;;8282187;28;20227;-62
2022/04/12 08:21:40;;;;;;;14.00;7.03;;;10.50;1.00;;;;;;8282229;28;20237;-61
2022/04/12 08:25:40;;;;;;;11.43;7.47;;;10.70;1.00;;;;;;8282282;28;20218;-63
2022/04/12 08:29:41;;;;;;;12.23;6.67;;;10.90;1.00;;;;;;8280309;28;20425;-62
2022/04/12 08:33:42;;;;;;;7.10;5.07;;;11.00;1.00;;;;;;8278016;28;20244;-61
2022/04/12 08:37:44;;;;;;;10.07;6.83;;;11.20;1.00;;;;;;8279140;28;20340;-61
2022/04/12 08:41:45;;;;;;;8.27;5.33;;;11.50;99.90;;;;;;8276838;28;20205;-62
2022/04/12 08:45:46;;;;;;;9.23;5.00;;;11.60;99.90;;;;;;8295801;28;20210;-60
2022/04/12 08:49:47;;;;;;;7.83;5.10;;;11.70;99.90;;;;;;8276313;28;20225;-63
2022/04/12 08:53:48;;;;;;;7.07;4.80;;;11.90;99.90;;;;;;8278235;28;20218;-61
2022/04/12 08:57:49;;;;;;;7.87;5.40;;;11.90;99.90;;;;;;8279630;28;20357;-62
2022/04/12 09:01:50;;;;;;;11.73;7.53;;;12.00;99.90;;;;;;8281551;28;20233;-62
2022/04/12 09:05:52;;;;;;;25.37;12.60;;;12.10;99.90;;;;;;8284043;28;20206;-63
2022/04/12 09:10:08;;;;;;;35.63;17.63;;;12.20;99.90;;;;;;8286854;28;20205;-63
2022/04/12 09:14:13;;;;;;;252.43;99.20;;;12.40;99.90;;;;;;8290638;28;20210;-63
2022/04/12 09:18:29;;;;;;;368.53;194.13;;;12.50;99.90;;;;;;8283536;28;20223;-61
2022/04/12 09:22:34;;;;;;;21.27;13.27;;;12.70;99.90;;;;;;8281583;28;20211;-64
2022/04/12 09:26:35;;;;;;;13.53;9.77;;;12.70;99.90;;;;;;8281045;28;20277;-61
2022/04/12 09:30:37;;;;;;;7.57;6.00;;;12.90;99.90;;;;;;8284965;28;20210;-62
2022/04/12 09:34:38;;;;;;;8.73;5.70;;;13.10;99.90;;;;;;8285003;28;20303;-61
2022/04/12 09:38:41;;;;;;;8.50;5.47;;;13.30;99.90;;;;;;8282778;28;20286;-61
2022/04/12 09:42:50;;;;;;;11.30;6.63;;;13.50;99.90;;;;;;8281586;28;20237;-61
2022/04/12 09:46:54;;;;;;;9.07;6.60;;;13.60;99.90;;;;;;8281874;28;20242;-62
2022/04/12 09:51:00;;;;;;;9.23;6.27;;;13.70;99.90;;;;;;8280454;28;20203;-62
2022/04/12 09:55:01;;;;;;;8.73;6.60;;;13.70;99.90;;;;;;8278725;28;20513;-61
2022/04/12 09:59:08;;;;;;;7.60;4.70;;;13.80;99.90;;;;;;8285832;28;20238;-63
2022/04/12 10:03:15;;;;;;;6.97;5.20;;;14.10;99.90;;;;;;8283921;28;20203;-64
2022/04/12 10:07:19;;;;;;;30.50;24.23;;;14.10;99.90;;;;;;8287718;28;20480;-63
2022/04/12 10:11:21;;;;;;;227.17;111.37;;;14.30;99.90;;;;;;8285058;28;20239;-65
2022/04/12 10:15:23;;;;;;;102.17;59.83;;;14.50;99.90;;;;;;8285023;28;20273;-61
2022/04/12 10:19:24;;;;;;;14.40;11.17;;;14.60;98.20;;;;;;8282522;28;20238;-62
2022/04/12 10:23:26;;;;;;;43.63;26.37;;;14.60;88.00;;;;;;8284109;28;20206;-64
2022/04/12 10:27:28;;;;;;;8.50;6.30;;;14.60;80.40;;;;;;8283203;28;20229;-62
2022/04/12 10:31:31;;;;;;;8.70;5.50;;;14.80;75.60;;;;;;8285720;28;20199;-63
2022/04/12 10:35:55;;;;;;;5.00;3.90;;;14.90;58.50;;;;;;8281040;28;20219;-62
2022/04/12 10:40:04;;;;;;;5.90;4.13;;;15.00;39.90;;;;;;8281069;28;20264;-63
2022/04/12 10:44:19;;;;;;;6.00;4.63;;;15.10;37.20;;;;;;8285088;28;20203;-62
2022/04/12 10:48:26;;;;;;;7.17;5.00;;;15.30;55.20;;;;;;8282220;28;20213;-62
2022/04/12 10:52:44;;;;;;;6.60;4.80;;;15.30;45.80;;;;;;8300393;28;20298;-61
2022/04/12 10:56:48;;;;;;;7.70;4.80;;;15.50;54.50;;;;;;8282556;28;20306;-62
2022/04/12 11:00:49;;;;;;;7.37;4.53;;;15.60;46.00;;;;;;8280102;28;20202;-64
2022/04/12 11:04:50;;;;;;;6.90;4.90;;;15.50;44.80;;;;;;8291567;28;20270;-62
2022/04/12 11:08:52;;;;;;;6.30;4.50;;;15.50;41.60;;;;;;8283230;28;20211;-61
2022/04/12 11:13:10;;;;;;;8.27;5.60;;;15.40;42.90;;;;;;8282015;28;20246;-61
2022/04/12 11:17:14;;;;;;;6.53;4.37;;;15.30;37.40;;;;;;8287148;28;20223;-66
2022/04/12 11:21:18;;;;;;;6.80;4.50;;;15.40;58.30;;;;;;8283647;28;20215;-63
2022/04/12 11:25:21;;;;;;;7.17;4.30;;;15.50;78.70;;;;;;8281981;28;20211;-63
2022/04/12 11:29:23;;;;;;;7.43;4.90;;;15.60;63.10;;;;;;8282344;28;20213;-62
2022/04/12 11:33:25;;;;;;;7.47;5.50;;;15.70;57.20;;;;;;8281532;28;20286;-64
2022/04/12 11:37:27;;;;;;;7.20;5.03;;;15.60;49.40;;;;;;8286034;28;20313;-64
2022/04/12 11:41:32;;;;;;;8.73;5.83;;;15.50;44.00;;;;;;8280891;28;20215;-62
2022/04/12 11:45:33;;;;;;;23.90;10.83;;;15.40;50.70;;;;;;8280884;28;20242;-62
2022/04/12 11:49:38;;;;;;;7.87;5.17;;;15.40;83.70;;;;;;8278737;28;20202;-62
2022/04/12 11:53:49;;;;;;;10.37;7.10;;;15.40;70.00;;;;;;8281234;28;20213;-65
2022/04/12 11:57:50;;;;;;;27.97;11.67;;;15.50;85.90;;;;;;8275625;28;20234;-65
2022/04/12 12:01:51;;;;;;;24.30;10.80;;;15.70;97.80;;;;;;8284691;28;20218;-63
2022/04/12 12:05:52;;;;;;;9.37;6.03;;;15.80;55.80;;;;;;8279173;28;20214;-64
2022/04/12 12:09:54;;;;;;;17.30;8.10;;;15.90;50.50;;;;;;8282838;28;20297;-62
2022/04/12 12:13:59;;;;;;;90.00;26.80;;;16.00;42.60;;;;;;8293972;28;20289;-61
2022/04/12 12:18:06;;;;;;;22.93;13.87;;;16.10;54.10;;;;;;8281310;28;20238;-61
2022/04/12 12:22:10;;;;;;;20.57;12.40;;;16.20;37.10;;;;;;8287308;28;20230;-62
2022/04/12 12:26:10;;;;;;;7.63;6.10;;;16.20;40.50;;;;;;8279061;28;20264;-63
2022/04/12 12:30:18;;;;;;;18.40;8.70;;;16.20;46.20;;;;;;8280524;28;20214;-63
2022/04/12 12:34:35;;;;;;;8.33;6.37;;;16.40;31.80;;;;;;8281435;28;20294;-62
2022/04/12 12:38:43;;;;;;;7.63;5.33;;;16.40;26.40;;;;;;8275682;28;20258;-62
2022/04/12 12:42:44;;;;;;;10.13;6.10;;;16.50;54.50;;;;;;8280824;28;20203;-63
2022/04/12 12:46:45;;;;;;;8.60;6.17;;;16.60;40.40;;;;;;8280949;28;20215;-64
2022/04/12 12:50:46;;;;;;;8.93;6.33;;;16.60;31.80;;;;;;8274253;28;20207;-61
2022/04/12 12:54:55;;;;;;;13.30;8.20;;;16.60;13.60;;;;;;8283178;28;20342;-64
2022/04/12 12:59:26;;;;;;;7.30;5.80;;;16.60;18.00;;;;;;8280817;28;20247;-64
2022/04/12 13:03:28;;;;;;;10.27;5.70;;;16.60;20.80;;;;;;8277864;28;20257;-64
2022/04/12 13:07:34;;;;;;;6.30;5.23;;;16.80;12.80;;;;;;8281152;28;20217;-61
2022/04/12 13:11:34;;;;;;;6.97;4.57;;;16.90;16.50;;;;;;8279024;28;20210;-63
2022/04/12 13:15:35;;;;;;;7.40;5.07;;;17.00;17.40;;;;;;8279501;28;20265;-64
2022/04/12 13:19:36;;;;;;;7.63;4.80;;;17.10;2.30;;;;;;8282205;28;20272;-62
2022/04/12 13:23:37;;;;;;;6.47;4.57;;;17.20;15.80;;;;;;8279653;28;20209;-61
2022/04/12 13:27:38;;;;;;;5.83;4.73;;;17.30;6.90;;;;;;8285804;28;20219;-62
2022/04/12 13:31:39;;;;;;;5.90;4.80;;;17.40;1.00;;;;;;8281744;28;20206;-68
2022/04/12 13:35:40;;;;;;;7.20;5.43;;;17.40;1.00;;;;;;8287402;28;20218;-69
2022/04/12 13:39:41;;;;;;;8.10;5.87;;;17.40;1.00;;;;;;8286313;28;20226;-67
2022/04/12 13:43:41;;;;;;;9.97;5.73;;;17.40;1.00;;;;;;8285242;28;20199;-68
2022/04/12 13:47:43;;;;;;;7.67;5.20;;;17.40;1.00;;;;;;8288415;28;20214;-70
2022/04/12 13:51:44;;;;;;;7.90;5.60;;;17.40;1.00;;;;;;8293305;28;20207;-65
2022/04/12 13:55:45;;;;;;;8.60;5.20;;;17.30;1.00;;;;;;8291397;28;20273;-69
2022/04/12 13:59:46;;;;;;;12.30;6.37;;;17.40;1.00;;;;;;8289370;28;20239;-72
2022/04/12 14:03:47;;;;;;;12.60;6.50;;;17.30;1.00;;;;;;8291804;28;20280;-66
2022/04/12 14:07:48;;;;;;;23.13;7.00;;;17.10;1.00;;;;;;8282615;28;20547;-66
2022/04/12 14:11:51;;;;;;;8.87;5.30;;;16.90;1.00;;;;;;8290666;28;20249;-68
2022/04/12 14:15:53;;;;;;;11.53;5.10;;;16.90;1.00;;;;;;8297456;28;20632;-67
2022/04/12 14:19:54;;;;;;;7.60;5.43;;;16.80;1.00;;;;;;8290469;28;20235;-66
2022/04/12 14:23:54;;;;;;;9.70;5.20;;;16.80;1.00;;;;;;8291588;28;20207;-67
2022/04/12 14:27:55;;;;;;;5.80;4.50;;;16.90;1.00;;;;;;8287493;28;20399;-66
2022/04/12 14:31:56;;;;;;;7.40;5.17;;;17.10;1.00;;;;;;8287419;28;20218;-66
2022/04/12 14:35:57;;;;;;;8.00;5.83;;;17.20;1.00;;;;;;8286768;28;20218;-68
2022/04/12 14:39:58;;;;;;;6.87;4.37;;;17.20;1.00;;;;;;8277738;28;20233;-65
2022/04/12 14:44:00;;;;;;;11.37;5.67;;;17.10;1.00;;;;;;8283117;28;20306;-68
2022/04/12 14:48:02;;;;;;;7.23;4.80;;;16.90;1.00;;;;;;8285042;28;20225;-66
2022/04/12 14:52:04;;;;;;;10.60;5.50;;;16.80;1.00;;;;;;8293086;28;20380;-66
2022/04/12 14:56:07;;;;;;;8.87;5.13;;;16.90;1.00;;;;;;8298827;28;20226;-65
2022/04/12 15:00:08;;;;;;;10.97;5.50;;;16.60;1.00;;;;;;8299807;28;20924;-67
2022/04/12 15:04:09;;;;;;;8.27;5.60;;;16.50;1.00;;;;;;8287644;28;20218;-69
2022/04/12 15:08:10;;;;;;;11.73;6.30;;;16.40;1.00;;;;;;8281645;28;20252;-69
2022/04/12 15:12:11;;;;;;;8.40;5.83;;;16.30;1.00;;;;;;8281991;28;20242;-68
2022/04/12 15:16:12;;;;;;;15.50;7.87;;;16.20;1.00;;;;;;8285725;28;20216;-70
2022/04/12 15:20:13;;;;;;;9.37;6.07;;;16.20;1.00;;;;;;8289859;28;20541;-67
2022/04/12 15:24:14;;;;;;;10.00;6.80;;;16.20;1.00;;;;;;8285376;28;20238;-66
2022/04/12 15:28:15;;;;;;;12.73;6.60;;;16.10;5.20;;;;;;8283850;28;20238;-66
2022/04/12 15:32:17;;;;;;;11.47;8.47;;;16.00;12.00;;;;;;8282171;28;20215;-70
2022/04/12 15:36:19;;;;;;;11.23;7.03;;;15.80;32.30;;;;;;8281376;28;20214;-65
2022/04/12 15:40:20;;;;;;;10.43;6.67;;;15.70;39.70;;;;;;8287360;28;20230;-68
2022/04/12 15:44:21;;;;;;;12.03;6.47;;;15.60;56.20;;;;;;8283517;28;20206;-65
2022/04/12 15:48:23;;;;;;;9.40;6.80;;;15.50;62.60;;;;;;8282923;28;20328;-64
2022/04/12 15:52:24;;;;;;;14.10;7.10;;;15.50;76.30;;;;;;8284166;28;20207;-66
2022/04/12 15:56:25;;;;;;;12.30;7.40;;;15.40;92.40;;;;;;8285945;28;20206;-66
2022/04/12 16:00:27;;;;;;;11.80;7.33;;;15.30;89.50;;;;;;8279873;28;20223;-68
2022/04/12 16:04:28;;;;;;;13.07;8.13;;;15.20;90.00;;;;;;8282114;28;20338;-68
2022/04/12 16:08:28;;;;;;;29.77;15.93;;;15.10;95.80;;;;;;8283248;28;20241;-66
2022/04/12 16:12:29;;;;;;;9.63;7.17;;;15.10;93.50;;;;;;8285034;28;20207;-67
2022/04/12 16:16:31;;;;;;;12.43;7.13;;;14.90;93.70;;;;;;8285101;28;20222;-68
2022/04/12 16:20:31;;;;;;;14.60;7.73;;;14.80;96.20;;;;;;8285706;28;20217;-69
2022/04/12 16:24:34;;;;;;;15.10;9.47;;;14.70;98.60;;;;;;8285122;28;20199;-67
2022/04/12 16:28:37;;;;;;;12.37;7.90;;;14.60;99.90;;;;;;8284122;28;20225;-70
2022/04/12 16:32:38;;;;;;;17.10;7.47;;;14.50;99.90;;;;;;8284283;28;20207;-68
2022/04/12 16:36:39;;;;;;;12.17;7.73;;;14.40;99.90;;;;;;8267558;28;20255;-66
2022/04/12 16:40:40;;;;;;;9.87;7.00;;;14.30;99.90;;;;;;8284476;28;20235;-65
2022/04/12 16:44:41;;;;;;;15.23;7.93;;;14.20;99.90;;;;;;8281334;28;20298;-67
2022/04/12 16:48:41;;;;;;;10.20;6.43;;;14.10;99.90;;;;;;8286781;28;20231;-70
2022/04/12 16:52:42;;;;;;;8.33;5.93;;;14.00;99.90;;;;;;8288257;28;20490;-69
2022/04/12 16:56:43;;;;;;;9.93;7.00;;;13.90;99.90;;;;;;8282868;28;20203;-65
2022/04/12 17:00:44;;;;;;;13.93;7.90;;;13.80;99.90;;;;;;8282427;28;20207;-70
2022/04/12 17:04:45;;;;;;;31.57;15.87;;;13.60;99.90;;;;;;8283291;28;20248;-66
2022/04/12 17:08:46;;;;;;;15.10;9.13;;;13.50;99.90;;;;;;8281651;28;20257;-66
2022/04/12 17:12:47;;;;;;;10.77;7.33;;;13.30;99.90;;;;;;8282488;28;20203;-69
2022/04/12 17:16:47;;;;;;;8.87;6.60;;;13.10;99.90;;;;;;8229673;28;20264;-69
2022/04/12 17:20:48;;;;;;;11.53;6.33;;;13.00;99.90;;;;;;8218308;28;20217;-66
2022/04/12 17:24:49;;;;;;;13.83;7.10;;;12.80;99.90;;;;;;8235249;28;20419;-69
2022/04/12 17:28:50;;;;;;;9.53;6.60;;;12.60;99.90;;;;;;8240136;28;20288;-69
2022/04/12 17:32:51;;;;;;;18.70;9.03;;;12.40;99.90;;;;;;8243552;28;20210;-69
2022/04/12 17:36:52;;;;;;;10.90;6.70;;;12.20;99.90;;;;;;8253211;28;20245;-68
2022/04/12 17:40:53;;;;;;;10.37;6.97;;;12.00;99.90;;;;;;8258726;28;20225;-67
2022/04/12 17:44:54;;;;;;;20.37;10.77;;;11.80;99.90;;;;;;8252319;28;20313;-68
2022/04/12 17:48:55;;;;;;;15.40;9.43;;;11.60;99.90;;;;;;8235046;28;20213;-69
2022/04/12 17:52:56;;;;;;;9.97;6.67;;;11.40;99.90;;;;;;8278075;28;20237;-69
2022/04/12 17:56:57;;;;;;;8.87;6.33;;;11.20;99.90;;;;;;8256635;28;20202;-67
2022/04/12 18:00:58;;;;;;;9.50;6.43;;;10.90;99.90;;;;;;8248374;28;21199;-69
2022/04/12 18:05:02;;;;;;;14.93;8.67;;;10.80;99.90;;;;;;8252092;28;20218;-69
2022/04/12 18:09:05;;;;;;;18.37;12.87;;;10.60;99.90;;;;;;8248536;28;20348;-66
2022/04/12 18:13:08;;;;;;;15.47;9.77;;;10.40;99.90;;;;;;8239638;28;20232;-66
2022/04/12 18:17:09;;;;;;;17.97;10.43;;;10.30;99.90;;;;;;8264006;28;20207;-66
2022/04/12 18:21:10;;;;;;;18.40;10.53;;;10.20;99.90;;;;;;8278391;28;20219;-66
2022/04/12 18:25:11;;;;;;;13.13;8.17;;;10.00;99.90;;;;;;8275223;28;20211;-64
2022/04/12 18:29:12;;;;;;;11.87;7.63;;;9.80;99.90;;;;;;8276833;28;20220;-67
2022/04/12 18:33:13;;;;;;;30.80;18.63;;;9.70;99.90;;;;;;8299306;28;20213;-67
2022/04/12 18:37:14;;;;;;;16.00;10.77;;;9.60;1.00;;;;;;8285127;28;20214;-66
2022/04/12 18:41:15;;;;;;;10.03;6.43;;;9.50;1.00;;;;;;8285615;28;20325;-66
2022/04/12 18:45:16;;;;;;;8.37;5.83;;;9.40;1.00;;;;;;8285280;28;20281;-68
2022/04/12 18:49:17;;;;;;;9.97;6.27;;;9.40;1.00;;;;;;8284714;28;20241;-64
2022/04/12 18:53:18;;;;;;;11.43;6.67;;;9.30;1.00;;;;;;8297291;28;20210;-65
2022/04/12 18:57:20;;;;;;;8.30;6.33;;;9.20;99.90;;;;;;8276833;28;20203;-63
2022/04/12 19:01:21;;;;;;;12.30;6.97;;;9.10;1.00;;;;;;8298117;28;20245;-66
2022/04/12 19:05:22;;;;;;;12.00;7.17;;;9.00;99.90;;;;;;8299865;28;20215;-65
2022/04/12 19:09:23;;;;;;;10.73;6.67;;;8.80;99.90;;;;;;8286775;28;20238;-67
2022/04/12 19:13:24;;;;;;;10.50;7.10;;;8.80;1.00;;;;;;8282197;28;20211;-65
2022/04/12 19:17:25;;;;;;;9.97;7.33;;;8.70;1.00;;;;;;8284742;28;20333;-66
2022/04/12 19:21:26;;;;;;;13.70;7.33;;;8.60;1.00;;;;;;8291655;28;20206;-65
2022/04/12 19:25:30;;;;;;;13.33;7.90;;;8.50;1.00;;;;;;8283369;28;20296;-66
2022/04/12 19:29:31;;;;;;;11.67;8.03;;;8.50;1.00;;;;;;8286553;28;20203;-66
2022/04/12 19:33:33;;;;;;;13.90;7.60;;;8.40;1.00;;;;;;8293744;28;20207;-64
2022/04/12 19:37:34;;;;;;;10.43;7.10;;;8.30;1.00;;;;;;8278601;28;20223;-65
2022/04/12 19:41:35;;;;;;;9.70;6.83;;;8.30;1.00;;;;;;8280103;28;20222;-65
2022/04/12 19:45:39;;;;;;;17.00;9.17;;;8.30;1.00;;;;;;8291835;28;20254;-67
2022/04/12 19:49:40;;;;;;;15.37;8.17;;;8.30;1.00;;;;;;8289595;28;20207;-66
2022/04/12 19:53:42;;;;;;;13.13;7.30;;;8.20;1.00;;;;;;8285560;28;20233;-65
2022/04/12 19:57:45;;;;;;;9.93;6.57;;;8.10;1.00;;;;;;8286225;28;20206;-67
2022/04/12 20:01:46;;;;;;;12.63;7.00;;;8.00;1.00;;;;;;8287263;28;20230;-67
2022/04/12 20:05:47;;;;;;;11.30;6.50;;;8.00;1.00;;;;;;8286711;28;20222;-67
2022/04/12 20:09:49;;;;;;;11.00;6.17;;;7.90;1.00;;;;;;8283161;28;20695;-65
2022/04/12 20:13:50;;;;;;;8.97;6.40;;;7.90;1.00;;;;;;8286114;28;20203;-66
2022/04/12 20:17:51;;;;;;;7.87;5.33;;;7.80;1.00;;;;;;8291062;28;20211;-67
2022/04/12 20:21:51;;;;;;;8.10;5.57;;;7.80;1.00;;;;;;8294089;28;20210;-66
2022/04/12 20:25:52;;;;;;;9.27;6.00;;;7.80;1.00;;;;;;8287527;28;20249;-67
2022/04/12 20:29:53;;;;;;;12.33;6.90;;;7.80;1.00;;;;;;8285906;28;20199;-65
2022/04/12 20:33:54;;;;;;;8.30;5.93;;;7.80;1.00;;;;;;8279981;28;20207;-66
2022/04/12 20:37:55;;;;;;;9.70;6.47;;;7.90;1.00;;;;;;8283127;28;20207;-63
2022/04/12 20:41:56;;;;;;;9.03;6.17;;;8.00;1.00;;;;;;8285323;28;20215;-63
2022/04/12 20:45:57;;;;;;;8.60;6.27;;;8.00;1.00;;;;;;8281048;28;20271;-62
2022/04/12 20:49:58;;;;;;;14.43;6.80;;;8.00;12.50;;;;;;8301890;28;20211;-63
2022/04/12 20:53:59;;;;;;;9.57;6.70;;;8.00;1.00;;;;;;8284987;28;20452;-67
2022/04/12 20:58:01;;;;;;;11.10;6.73;;;8.00;26.70;;;;;;8283839;28;20305;-64